sensor_id;sensor_type;location;lat;lon;timestamp;P1;durP1;ratioP1;P2;durP2;ratioP2
16516;SDS011;8371;52.272;9.746;2023-04-25T00:02:18;2.37;;;2.27;;
16516;SDS011;8371;52.272;9.746;2023-04-25T00:04:44;2.73;;;2.53;;
16516;SDS011;8371;52.272;9.746;2023-04-25T00:07:11;2.03;;;1.83;;
16516;SDS011;8371;52.272;9.746;2023-04-25T00:09:38;1.50;;;1.43;;
16516;SDS011;8371;52.272;9.746;2023-04-25T00:12:03;2.20;;;1.70;;
16516;SDS011;8371;52.272;9.746;2023-04-25T00:14:29;2.70;;;2.00;;
16516;SDS011;8371;52.272;9.746;2023-04-25T00:16:55;2.90;;;1.70;;
16516;SDS011;8371;52.272;9.746;2023-04-25T00:19:21;2.43;;;2.23;;
16516;SDS011;8371;52.272;9.746;2023-04-25T00:21:47;2.63;;;2.03;;
16516;SDS011;8371;52.272;9.746;2023-04-25T00:24:13;1.83;;;1.73;;
16516;SDS011;8371;52.272;9.746;2023-04-25T00:26:39;1.73;;;1.63;;
16516;SDS011;8371;52.272;9.746;2023-04-25T00:29:04;1.60;;;1.50;;
16516;SDS011;8371;52.272;9.746;2023-04-25T00:31:30;2.33;;;2.13;;
16516;SDS011;8371;52.272;9.746;2023-04-25T00:33:56;2.90;;;1.73;;
16516;SDS011;8371;52.272;9.746;2023-04-25T00:36:21;1.67;;;1.57;;
16516;SDS011;8371;52.272;9.746;2023-04-25T00:38:47;1.83;;;1.73;;
16516;SDS011;8371;52.272;9.746;2023-04-25T00:41:13;1.90;;;1.47;;
16516;SDS011;8371;52.272;9.746;2023-04-25T00:43:39;2.67;;;1.93;;
16516;SDS011;8371;52.272;9.746;2023-04-25T00:46:06;2.17;;;2.07;;
16516;SDS011;8371;52.272;9.746;2023-04-25T00:48:32;1.53;;;1.43;;
16516;SDS011;8371;52.272;9.746;2023-04-25T00:50:58;3.13;;;1.70;;
16516;SDS011;8371;52.272;9.746;2023-04-25T00:53:25;1.70;;;1.60;;
16516;SDS011;8371;52.272;9.746;2023-04-25T00:55:52;2.50;;;2.10;;
16516;SDS011;8371;52.272;9.746;2023-04-25T00:58:24;4.57;;;1.70;;
16516;SDS011;8371;52.272;9.746;2023-04-25T01:00:48;1.90;;;1.60;;
16516;SDS011;8371;52.272;9.746;2023-04-25T01:03:15;2.07;;;1.77;;
16516;SDS011;8371;52.272;9.746;2023-04-25T01:05:42;2.30;;;2.10;;
16516;SDS011;8371;52.272;9.746;2023-04-25T01:08:09;2.00;;;1.90;;
16516;SDS011;8371;52.272;9.746;2023-04-25T01:10:35;3.03;;;1.87;;
16516;SDS011;8371;52.272;9.746;2023-04-25T01:13:01;4.47;;;2.00;;
16516;SDS011;8371;52.272;9.746;2023-04-25T01:15:27;2.13;;;1.70;;
16516;SDS011;8371;52.272;9.746;2023-04-25T01:17:52;2.63;;;2.40;;
16516;SDS011;8371;52.272;9.746;2023-04-25T01:20:19;1.90;;;1.80;;
16516;SDS011;8371;52.272;9.746;2023-04-25T01:22:49;2.03;;;1.93;;
16516;SDS011;8371;52.272;9.746;2023-04-25T01:25:15;2.23;;;2.13;;
16516;SDS011;8371;52.272;9.746;2023-04-25T01:27:42;2.17;;;2.00;;
16516;SDS011;8371;52.272;9.746;2023-04-25T01:30:08;2.70;;;2.60;;
16516;SDS011;8371;52.272;9.746;2023-04-25T01:32:34;1.87;;;1.77;;
16516;SDS011;8371;52.272;9.746;2023-04-25T01:35:08;2.23;;;2.13;;
16516;SDS011;8371;52.272;9.746;2023-04-25T01:37:36;1.90;;;1.80;;
16516;SDS011;8371;52.272;9.746;2023-04-25T01:40:04;2.13;;;2.00;;
16516;SDS011;8371;52.272;9.746;2023-04-25T01:42:33;3.13;;;2.60;;
16516;SDS011;8371;52.272;9.746;2023-04-25T01:45:00;2.30;;;1.83;;
16516;SDS011;8371;52.272;9.746;2023-04-25T01:47:27;2.43;;;2.23;;
16516;SDS011;8371;52.272;9.746;2023-04-25T01:49:53;2.50;;;2.30;;
16516;SDS011;8371;52.272;9.746;2023-04-25T01:52:18;2.53;;;2.43;;
16516;SDS011;8371;52.272;9.746;2023-04-25T01:54:44;3.00;;;2.80;;
16516;SDS011;8371;52.272;9.746;2023-04-25T01:57:13;3.37;;;2.10;;
16516;SDS011;8371;52.272;9.746;2023-04-25T01:59:39;2.10;;;1.97;;
16516;SDS011;8371;52.272;9.746;2023-04-25T02:02:06;2.43;;;2.07;;
16516;SDS011;8371;52.272;9.746;2023-04-25T02:04:31;3.43;;;1.63;;
16516;SDS011;8371;52.272;9.746;2023-04-25T02:06:57;4.93;;;2.03;;
16516;SDS011;8371;52.272;9.746;2023-04-25T02:09:23;3.33;;;2.23;;
16516;SDS011;8371;52.272;9.746;2023-04-25T02:11:48;2.57;;;1.97;;
16516;SDS011;8371;52.272;9.746;2023-04-25T02:14:14;1.80;;;1.77;;
16516;SDS011;8371;52.272;9.746;2023-04-25T02:16:40;2.13;;;1.93;;
16516;SDS011;8371;52.272;9.746;2023-04-25T02:19:06;1.70;;;1.60;;
16516;SDS011;8371;52.272;9.746;2023-04-25T02:21:32;1.70;;;1.60;;
16516;SDS011;8371;52.272;9.746;2023-04-25T02:23:57;2.00;;;1.90;;
16516;SDS011;8371;52.272;9.746;2023-04-25T02:26:23;1.57;;;1.53;;
16516;SDS011;8371;52.272;9.746;2023-04-25T02:28:49;1.73;;;1.63;;
16516;SDS011;8371;52.272;9.746;2023-04-25T02:31:16;1.80;;;1.67;;
16516;SDS011;8371;52.272;9.746;2023-04-25T02:33:42;1.53;;;1.50;;
16516;SDS011;8371;52.272;9.746;2023-04-25T02:36:09;2.30;;;1.70;;
16516;SDS011;8371;52.272;9.746;2023-04-25T02:38:35;2.10;;;2.00;;
16516;SDS011;8371;52.272;9.746;2023-04-25T02:41:00;1.63;;;1.60;;
16516;SDS011;8371;52.272;9.746;2023-04-25T02:43:26;1.70;;;1.60;;
16516;SDS011;8371;52.272;9.746;2023-04-25T02:45:52;2.30;;;1.70;;
16516;SDS011;8371;52.272;9.746;2023-04-25T02:48:17;2.00;;;1.90;;
16516;SDS011;8371;52.272;9.746;2023-04-25T02:50:43;1.90;;;1.80;;
16516;SDS011;8371;52.272;9.746;2023-04-25T02:53:09;1.63;;;1.53;;
16516;SDS011;8371;52.272;9.746;2023-04-25T02:55:34;1.93;;;1.23;;
16516;SDS011;8371;52.272;9.746;2023-04-25T02:58:00;2.90;;;1.80;;
16516;SDS011;8371;52.272;9.746;2023-04-25T03:00:26;5.33;;;2.03;;
16516;SDS011;8371;52.272;9.746;2023-04-25T03:02:51;4.00;;;2.07;;
16516;SDS011;8371;52.272;9.746;2023-04-25T03:05:17;1.97;;;1.80;;
16516;SDS011;8371;52.272;9.746;2023-04-25T03:07:43;1.47;;;1.37;;
16516;SDS011;8371;52.272;9.746;2023-04-25T03:10:10;2.20;;;1.20;;
16516;SDS011;8371;52.272;9.746;2023-04-25T03:12:36;2.03;;;1.80;;
16516;SDS011;8371;52.272;9.746;2023-04-25T03:15:02;2.30;;;1.53;;
16516;SDS011;8371;52.272;9.746;2023-04-25T03:17:28;2.40;;;1.50;;
16516;SDS011;8371;52.272;9.746;2023-04-25T03:19:54;2.70;;;1.67;;
16516;SDS011;8371;52.272;9.746;2023-04-25T03:22:20;1.67;;;1.57;;
16516;SDS011;8371;52.272;9.746;2023-04-25T03:24:46;1.50;;;1.40;;
16516;SDS011;8371;52.272;9.746;2023-04-25T03:27:12;1.97;;;1.30;;
16516;SDS011;8371;52.272;9.746;2023-04-25T03:29:38;1.90;;;1.70;;
16516;SDS011;8371;52.272;9.746;2023-04-25T03:32:04;3.60;;;1.87;;
16516;SDS011;8371;52.272;9.746;2023-04-25T03:34:29;1.73;;;1.50;;
16516;SDS011;8371;52.272;9.746;2023-04-25T03:36:55;2.00;;;1.50;;
16516;SDS011;8371;52.272;9.746;2023-04-25T03:39:21;1.47;;;1.37;;
16516;SDS011;8371;52.272;9.746;2023-04-25T03:41:47;1.80;;;1.70;;
16516;SDS011;8371;52.272;9.746;2023-04-25T03:44:13;1.50;;;1.40;;
16516;SDS011;8371;52.272;9.746;2023-04-25T03:46:39;2.40;;;1.80;;
16516;SDS011;8371;52.272;9.746;2023-04-25T03:49:05;1.90;;;1.70;;
16516;SDS011;8371;52.272;9.746;2023-04-25T03:51:31;1.50;;;1.40;;
16516;SDS011;8371;52.272;9.746;2023-04-25T03:53:56;2.93;;;1.87;;
16516;SDS011;8371;52.272;9.746;2023-04-25T03:56:22;1.77;;;1.53;;
16516;SDS011;8371;52.272;9.746;2023-04-25T03:58:48;4.40;;;1.80;;
16516;SDS011;8371;52.272;9.746;2023-04-25T04:01:13;2.43;;;1.47;;
16516;SDS011;8371;52.272;9.746;2023-04-25T04:03:39;2.33;;;1.83;;
16516;SDS011;8371;52.272;9.746;2023-04-25T04:06:05;2.70;;;1.73;;
16516;SDS011;8371;52.272;9.746;2023-04-25T04:08:32;5.10;;;1.97;;
16516;SDS011;8371;52.272;9.746;2023-04-25T04:11:01;4.10;;;1.80;;
16516;SDS011;8371;52.272;9.746;2023-04-25T04:13:27;1.83;;;1.73;;
16516;SDS011;8371;52.272;9.746;2023-04-25T04:15:54;1.97;;;1.50;;
16516;SDS011;8371;52.272;9.746;2023-04-25T04:18:20;2.70;;;1.47;;
16516;SDS011;8371;52.272;9.746;2023-04-25T04:20:46;1.70;;;1.60;;
16516;SDS011;8371;52.272;9.746;2023-04-25T04:23:12;2.77;;;1.60;;
16516;SDS011;8371;52.272;9.746;2023-04-25T04:25:38;1.87;;;1.77;;
16516;SDS011;8371;52.272;9.746;2023-04-25T04:28:05;2.33;;;1.60;;
16516;SDS011;8371;52.272;9.746;2023-04-25T04:30:31;1.93;;;1.73;;
16516;SDS011;8371;52.272;9.746;2023-04-25T04:32:58;3.27;;;1.83;;
16516;SDS011;8371;52.272;9.746;2023-04-25T04:35:26;1.40;;;1.30;;
16516;SDS011;8371;52.272;9.746;2023-04-25T04:37:51;4.50;;;1.80;;
16516;SDS011;8371;52.272;9.746;2023-04-25T04:40:17;3.03;;;1.77;;
16516;SDS011;8371;52.272;9.746;2023-04-25T04:42:43;2.87;;;1.97;;
16516;SDS011;8371;52.272;9.746;2023-04-25T04:45:10;2.93;;;1.53;;
16516;SDS011;8371;52.272;9.746;2023-04-25T04:47:37;2.30;;;1.57;;
16516;SDS011;8371;52.272;9.746;2023-04-25T04:50:09;3.70;;;2.17;;
16516;SDS011;8371;52.272;9.746;2023-04-25T04:52:35;4.00;;;2.07;;
16516;SDS011;8371;52.272;9.746;2023-04-25T04:55:02;3.93;;;1.80;;
16516;SDS011;8371;52.272;9.746;2023-04-25T04:57:31;3.20;;;1.70;;
16516;SDS011;8371;52.272;9.746;2023-04-25T04:59:58;4.07;;;1.63;;
16516;SDS011;8371;52.272;9.746;2023-04-25T05:02:24;2.30;;;1.70;;
16516;SDS011;8371;52.272;9.746;2023-04-25T05:04:50;1.80;;;1.70;;
16516;SDS011;8371;52.272;9.746;2023-04-25T05:07:17;4.03;;;2.00;;
16516;SDS011;8371;52.272;9.746;2023-04-25T05:09:43;3.40;;;2.00;;
16516;SDS011;8371;52.272;9.746;2023-04-25T05:12:09;4.53;;;1.63;;
16516;SDS011;8371;52.272;9.746;2023-04-25T05:14:35;5.57;;;2.10;;
16516;SDS011;8371;52.272;9.746;2023-04-25T05:17:00;2.03;;;1.93;;
16516;SDS011;8371;52.272;9.746;2023-04-25T05:19:26;4.47;;;2.17;;
16516;SDS011;8371;52.272;9.746;2023-04-25T05:21:52;3.40;;;1.40;;
16516;SDS011;8371;52.272;9.746;2023-04-25T05:24:30;5.33;;;2.03;;
16516;SDS011;8371;52.272;9.746;2023-04-25T05:26:47;4.20;;;1.80;;
16516;SDS011;8371;52.272;9.746;2023-04-25T05:29:13;2.43;;;1.87;;
16516;SDS011;8371;52.272;9.746;2023-04-25T05:31:44;3.47;;;2.10;;
16516;SDS011;8371;52.272;9.746;2023-04-25T05:34:07;2.83;;;2.30;;
16516;SDS011;8371;52.272;9.746;2023-04-25T05:36:33;1.50;;;1.40;;
16516;SDS011;8371;52.272;9.746;2023-04-25T05:39:03;1.87;;;1.77;;
16516;SDS011;8371;52.272;9.746;2023-04-25T05:41:30;2.53;;;1.73;;
16516;SDS011;8371;52.272;9.746;2023-04-25T05:43:56;4.33;;;1.90;;
16516;SDS011;8371;52.272;9.746;2023-04-25T05:46:24;4.73;;;2.13;;
16516;SDS011;8371;52.272;9.746;2023-04-25T05:48:50;2.20;;;1.43;;
16516;SDS011;8371;52.272;9.746;2023-04-25T05:51:18;3.63;;;2.10;;
16516;SDS011;8371;52.272;9.746;2023-04-25T05:53:44;3.10;;;2.30;;
16516;SDS011;8371;52.272;9.746;2023-04-25T05:56:10;2.40;;;1.87;;
16516;SDS011;8371;52.272;9.746;2023-04-25T05:58:37;2.43;;;1.73;;
16516;SDS011;8371;52.272;9.746;2023-04-25T06:01:06;3.73;;;1.73;;
16516;SDS011;8371;52.272;9.746;2023-04-25T06:03:37;3.70;;;1.63;;
16516;SDS011;8371;52.272;9.746;2023-04-25T06:06:11;2.37;;;1.70;;
16516;SDS011;8371;52.272;9.746;2023-04-25T06:08:44;1.80;;;1.70;;
16516;SDS011;8371;52.272;9.746;2023-04-25T06:11:21;3.47;;;2.10;;
16516;SDS011;8371;52.272;9.746;2023-04-25T06:13:55;1.77;;;1.67;;
16516;SDS011;8371;52.272;9.746;2023-04-25T06:16:29;6.47;;;2.10;;
16516;SDS011;8371;52.272;9.746;2023-04-25T06:19:02;3.70;;;2.00;;
16516;SDS011;8371;52.272;9.746;2023-04-25T06:24:00;5.43;;;2.40;;
16516;SDS011;8371;52.272;9.746;2023-04-25T06:26:32;2.70;;;1.87;;
16516;SDS011;8371;52.272;9.746;2023-04-25T06:29:00;3.97;;;2.00;;
16516;SDS011;8371;52.272;9.746;2023-04-25T06:31:28;5.20;;;2.87;;
16516;SDS011;8371;52.272;9.746;2023-04-25T06:33:59;4.80;;;2.40;;
16516;SDS011;8371;52.272;9.746;2023-04-25T06:36:25;2.07;;;1.97;;
16516;SDS011;8371;52.272;9.746;2023-04-25T06:38:52;3.27;;;1.90;;
16516;SDS011;8371;52.272;9.746;2023-04-25T06:41:23;5.30;;;2.47;;
16516;SDS011;8371;52.272;9.746;2023-04-25T06:43:49;2.33;;;1.47;;
16516;SDS011;8371;52.272;9.746;2023-04-25T06:46:16;7.20;;;2.03;;
16516;SDS011;8371;52.272;9.746;2023-04-25T06:48:44;5.80;;;2.17;;
16516;SDS011;8371;52.272;9.746;2023-04-25T06:51:14;3.23;;;1.60;;
16516;SDS011;8371;52.272;9.746;2023-04-25T06:53:42;3.30;;;1.93;;
16516;SDS011;8371;52.272;9.746;2023-04-25T06:56:10;3.83;;;1.83;;
16516;SDS011;8371;52.272;9.746;2023-04-25T06:58:38;3.33;;;1.37;;
16516;SDS011;8371;52.272;9.746;2023-04-25T07:01:10;4.27;;;2.13;;
16516;SDS011;8371;52.272;9.746;2023-04-25T07:03:36;2.93;;;2.20;;
16516;SDS011;8371;52.272;9.746;2023-04-25T07:06:03;5.23;;;1.97;;
16516;SDS011;8371;52.272;9.746;2023-04-25T07:08:34;2.07;;;1.40;;
16516;SDS011;8371;52.272;9.746;2023-04-25T07:11:00;4.43;;;2.00;;
16516;SDS011;8371;52.272;9.746;2023-04-25T07:13:28;5.00;;;1.70;;
16516;SDS011;8371;52.272;9.746;2023-04-25T07:15:56;4.33;;;1.90;;
16516;SDS011;8371;52.272;9.746;2023-04-25T07:18:26;3.17;;;2.10;;
16516;SDS011;8371;52.272;9.746;2023-04-25T07:20:54;6.33;;;2.00;;
16516;SDS011;8371;52.272;9.746;2023-04-25T07:23:24;3.63;;;1.60;;
16516;SDS011;8371;52.272;9.746;2023-04-25T07:25:50;2.23;;;1.50;;
16516;SDS011;8371;52.272;9.746;2023-04-25T07:28:16;3.23;;;1.50;;
16516;SDS011;8371;52.272;9.746;2023-04-25T07:30:44;2.43;;;1.33;;
16516;SDS011;8371;52.272;9.746;2023-04-25T07:33:15;2.80;;;1.63;;
16516;SDS011;8371;52.272;9.746;2023-04-25T07:35:39;5.90;;;1.87;;
16516;SDS011;8371;52.272;9.746;2023-04-25T07:38:09;3.10;;;1.80;;
16516;SDS011;8371;52.272;9.746;2023-04-25T07:40:36;2.00;;;1.50;;
16516;SDS011;8371;52.272;9.746;2023-04-25T07:43:06;2.43;;;1.63;;
16516;SDS011;8371;52.272;9.746;2023-04-25T07:45:46;2.70;;;1.77;;
16516;SDS011;8371;52.272;9.746;2023-04-25T07:48:01;3.07;;;1.97;;
16516;SDS011;8371;52.272;9.746;2023-04-25T07:50:31;1.17;;;1.00;;
16516;SDS011;8371;52.272;9.746;2023-04-25T07:52:59;1.73;;;1.63;;
16516;SDS011;8371;52.272;9.746;2023-04-25T07:55:31;2.67;;;1.47;;
16516;SDS011;8371;52.272;9.746;2023-04-25T07:58:01;4.13;;;1.63;;
16516;SDS011;8371;52.272;9.746;2023-04-25T08:00:33;2.80;;;1.17;;
16516;SDS011;8371;52.272;9.746;2023-04-25T08:03:04;3.13;;;1.03;;
16516;SDS011;8371;52.272;9.746;2023-04-25T08:05:38;1.83;;;1.23;;
16516;SDS011;8371;52.272;9.746;2023-04-25T08:08:05;2.60;;;1.00;;
16516;SDS011;8371;52.272;9.746;2023-04-25T08:10:37;1.47;;;1.03;;
16516;SDS011;8371;52.272;9.746;2023-04-25T08:13:03;2.93;;;1.40;;
16516;SDS011;8371;52.272;9.746;2023-04-25T08:15:30;2.70;;;1.87;;
16516;SDS011;8371;52.272;9.746;2023-04-25T08:18:03;3.70;;;1.70;;
16516;SDS011;8371;52.272;9.746;2023-04-25T08:20:31;1.30;;;1.20;;
16516;SDS011;8371;52.272;9.746;2023-04-25T08:23:04;5.57;;;2.13;;
16516;SDS011;8371;52.272;9.746;2023-04-25T08:25:30;1.50;;;1.30;;
16516;SDS011;8371;52.272;9.746;2023-04-25T08:28:00;1.43;;;1.20;;
16516;SDS011;8371;52.272;9.746;2023-04-25T08:30:28;3.83;;;1.40;;
16516;SDS011;8371;52.272;9.746;2023-04-25T08:32:58;3.13;;;1.57;;
16516;SDS011;8371;52.272;9.746;2023-04-25T08:35:25;3.47;;;1.50;;
16516;SDS011;8371;52.272;9.746;2023-04-25T08:37:56;4.20;;;1.37;;
16516;SDS011;8371;52.272;9.746;2023-04-25T08:40:22;3.90;;;2.03;;
16516;SDS011;8371;52.272;9.746;2023-04-25T08:42:52;3.03;;;1.00;;
16516;SDS011;8371;52.272;9.746;2023-04-25T08:45:22;2.57;;;1.57;;
16516;SDS011;8371;52.272;9.746;2023-04-25T08:47:51;2.00;;;1.20;;
16516;SDS011;8371;52.272;9.746;2023-04-25T08:50:22;3.27;;;1.60;;
16516;SDS011;8371;52.272;9.746;2023-04-25T08:52:50;1.83;;;1.10;;
16516;SDS011;8371;52.272;9.746;2023-04-25T08:55:30;2.40;;;1.40;;
16516;SDS011;8371;52.272;9.746;2023-04-25T08:57:58;1.20;;;0.80;;
16516;SDS011;8371;52.272;9.746;2023-04-25T09:00:27;5.17;;;1.13;;
16516;SDS011;8371;52.272;9.746;2023-04-25T09:02:53;3.77;;;1.50;;
16516;SDS011;8371;52.272;9.746;2023-04-25T09:05:20;1.33;;;1.30;;
16516;SDS011;8371;52.272;9.746;2023-04-25T09:07:48;5.77;;;1.20;;
16516;SDS011;8371;52.272;9.746;2023-04-25T09:10:14;2.10;;;1.33;;
16516;SDS011;8371;52.272;9.746;2023-04-25T09:12:47;1.37;;;1.00;;
16516;SDS011;8371;52.272;9.746;2023-04-25T09:15:15;1.27;;;1.17;;
16516;SDS011;8371;52.272;9.746;2023-04-25T09:17:49;2.00;;;0.90;;
16516;SDS011;8371;52.272;9.746;2023-04-25T09:20:14;2.40;;;1.10;;
16516;SDS011;8371;52.272;9.746;2023-04-25T09:22:48;4.03;;;1.03;;
16516;SDS011;8371;52.272;9.746;2023-04-25T09:25:13;4.17;;;1.30;;
16516;SDS011;8371;52.272;9.746;2023-04-25T09:27:49;1.13;;;1.10;;
16516;SDS011;8371;52.272;9.746;2023-04-25T09:30:28;1.77;;;1.10;;
16516;SDS011;8371;52.272;9.746;2023-04-25T09:33:03;3.37;;;1.20;;
16516;SDS011;8371;52.272;9.746;2023-04-25T09:35:37;1.23;;;1.07;;
16516;SDS011;8371;52.272;9.746;2023-04-25T09:38:07;1.77;;;1.40;;
16516;SDS011;8371;52.272;9.746;2023-04-25T09:40:40;0.90;;;0.90;;
16516;SDS011;8371;52.272;9.746;2023-04-25T09:43:19;2.27;;;0.90;;
16516;SDS011;8371;52.272;9.746;2023-04-25T09:45:47;1.90;;;1.00;;
16516;SDS011;8371;52.272;9.746;2023-04-25T09:48:22;1.30;;;1.20;;
16516;SDS011;8371;52.272;9.746;2023-04-25T09:51:09;1.10;;;1.00;;
16516;SDS011;8371;52.272;9.746;2023-04-25T09:53:37;0.70;;;0.70;;
16516;SDS011;8371;52.272;9.746;2023-04-25T09:56:07;1.27;;;1.10;;
16516;SDS011;8371;52.272;9.746;2023-04-25T09:58:42;2.53;;;1.03;;
16516;SDS011;8371;52.272;9.746;2023-04-25T10:01:11;0.90;;;0.90;;
16516;SDS011;8371;52.272;9.746;2023-04-25T10:03:39;0.93;;;0.60;;
16516;SDS011;8371;52.272;9.746;2023-04-25T10:06:17;0.93;;;0.87;;
16516;SDS011;8371;52.272;9.746;2023-04-25T10:08:47;2.60;;;0.90;;
16516;SDS011;8371;52.272;9.746;2023-04-25T10:11:18;1.47;;;0.80;;
16516;SDS011;8371;52.272;9.746;2023-04-25T10:13:52;1.47;;;1.07;;
16516;SDS011;8371;52.272;9.746;2023-04-25T10:16:16;0.90;;;0.90;;
16516;SDS011;8371;52.272;9.746;2023-04-25T10:18:49;1.27;;;0.87;;
16516;SDS011;8371;52.272;9.746;2023-04-25T10:21:16;2.67;;;1.17;;
16516;SDS011;8371;52.272;9.746;2023-04-25T10:23:45;1.50;;;1.10;;
16516;SDS011;8371;52.272;9.746;2023-04-25T10:26:18;0.80;;;0.80;;
16516;SDS011;8371;52.272;9.746;2023-04-25T10:29:01;0.83;;;0.83;;
16516;SDS011;8371;52.272;9.746;2023-04-25T10:31:37;2.50;;;0.90;;
16516;SDS011;8371;52.272;9.746;2023-04-25T10:34:08;1.27;;;1.10;;
16516;SDS011;8371;52.272;9.746;2023-04-25T10:36:35;0.87;;;0.87;;
16516;SDS011;8371;52.272;9.746;2023-04-25T10:39:06;0.90;;;0.90;;
16516;SDS011;8371;52.272;9.746;2023-04-25T10:41:47;1.77;;;0.70;;
16516;SDS011;8371;52.272;9.746;2023-04-25T10:44:14;1.10;;;1.00;;
16516;SDS011;8371;52.272;9.746;2023-04-25T10:46:43;1.27;;;1.10;;
16516;SDS011;8371;52.272;9.746;2023-04-25T10:49:28;4.00;;;1.00;;
16516;SDS011;8371;52.272;9.746;2023-04-25T10:52:16;1.70;;;1.50;;
16516;SDS011;8371;52.272;9.746;2023-04-25T10:54:49;0.90;;;0.90;;
16516;SDS011;8371;52.272;9.746;2023-04-25T11:02:47;2.60;;;1.30;;
16516;SDS011;8371;52.272;9.746;2023-04-25T11:05:36;1.47;;;1.00;;
16516;SDS011;8371;52.272;9.746;2023-04-25T11:08:11;4.63;;;1.30;;
16516;SDS011;8371;52.272;9.746;2023-04-25T11:10:39;1.90;;;0.87;;
16516;SDS011;8371;52.272;9.746;2023-04-25T11:13:10;0.80;;;0.80;;
16516;SDS011;8371;52.272;9.746;2023-04-25T11:15:40;3.00;;;1.37;;
16516;SDS011;8371;52.272;9.746;2023-04-25T11:18:07;1.43;;;1.33;;
16516;SDS011;8371;52.272;9.746;2023-04-25T11:20:38;1.53;;;1.10;;
16516;SDS011;8371;52.272;9.746;2023-04-25T11:23:04;0.90;;;0.90;;
16516;SDS011;8371;52.272;9.746;2023-04-25T11:25:32;1.97;;;0.70;;
16516;SDS011;8371;52.272;9.746;2023-04-25T11:27:59;1.27;;;1.03;;
16516;SDS011;8371;52.272;9.746;2023-04-25T11:30:28;2.33;;;0.97;;
16516;SDS011;8371;52.272;9.746;2023-04-25T11:32:56;3.23;;;1.00;;
16516;SDS011;8371;52.272;9.746;2023-04-25T11:35:27;1.77;;;1.20;;
16516;SDS011;8371;52.272;9.746;2023-04-25T11:37:58;1.10;;;1.07;;
16516;SDS011;8371;52.272;9.746;2023-04-25T11:40:24;0.60;;;0.60;;
16516;SDS011;8371;52.272;9.746;2023-04-25T11:42:52;3.03;;;0.80;;
16516;SDS011;8371;52.272;9.746;2023-04-25T11:45:18;1.53;;;0.87;;
16516;SDS011;8371;52.272;9.746;2023-04-25T11:47:49;2.63;;;1.00;;
16516;SDS011;8371;52.272;9.746;2023-04-25T11:50:15;2.40;;;0.83;;
16516;SDS011;8371;52.272;9.746;2023-04-25T11:52:45;1.20;;;0.90;;
16516;SDS011;8371;52.272;9.746;2023-04-25T11:55:17;1.63;;;1.10;;
16516;SDS011;8371;52.272;9.746;2023-04-25T11:57:46;1.60;;;1.00;;
16516;SDS011;8371;52.272;9.746;2023-04-25T12:00:19;1.20;;;1.10;;
16516;SDS011;8371;52.272;9.746;2023-04-25T12:02:53;1.03;;;0.90;;
16516;SDS011;8371;52.272;9.746;2023-04-25T12:05:24;0.80;;;0.80;;
16516;SDS011;8371;52.272;9.746;2023-04-25T12:07:54;0.73;;;0.73;;
16516;SDS011;8371;52.272;9.746;2023-04-25T12:10:23;0.80;;;0.80;;
16516;SDS011;8371;52.272;9.746;2023-04-25T12:12:55;3.33;;;0.90;;
16516;SDS011;8371;52.272;9.746;2023-04-25T12:15:24;1.83;;;0.80;;
16516;SDS011;8371;52.272;9.746;2023-04-25T12:17:52;1.03;;;0.50;;
16516;SDS011;8371;52.272;9.746;2023-04-25T12:20:21;1.33;;;1.20;;
16516;SDS011;8371;52.272;9.746;2023-04-25T12:22:52;3.97;;;0.90;;
16516;SDS011;8371;52.272;9.746;2023-04-25T12:25:39;3.30;;;1.03;;
16516;SDS011;8371;52.272;9.746;2023-04-25T12:28:10;1.13;;;0.70;;
16516;SDS011;8371;52.272;9.746;2023-04-25T12:31:00;1.53;;;0.80;;
16516;SDS011;8371;52.272;9.746;2023-04-25T12:33:30;2.70;;;0.83;;
16516;SDS011;8371;52.272;9.746;2023-04-25T12:36:00;0.90;;;0.70;;
16516;SDS011;8371;52.272;9.746;2023-04-25T12:38:46;0.97;;;0.97;;
16516;SDS011;8371;52.272;9.746;2023-04-25T12:41:11;0.30;;;0.30;;
16516;SDS011;8371;52.272;9.746;2023-04-25T12:43:44;0.77;;;0.77;;
16516;SDS011;8371;52.272;9.746;2023-04-25T12:46:14;0.90;;;0.90;;
16516;SDS011;8371;52.272;9.746;2023-04-25T12:48:42;0.57;;;0.57;;
16516;SDS011;8371;52.272;9.746;2023-04-25T12:51:09;0.57;;;0.57;;
16516;SDS011;8371;52.272;9.746;2023-04-25T12:53:39;0.90;;;0.90;;
16516;SDS011;8371;52.272;9.746;2023-04-25T12:56:09;3.23;;;0.90;;
16516;SDS011;8371;52.272;9.746;2023-04-25T12:58:35;0.70;;;0.70;;
16516;SDS011;8371;52.272;9.746;2023-04-25T13:01:06;1.10;;;0.67;;
16516;SDS011;8371;52.272;9.746;2023-04-25T13:03:32;0.50;;;0.50;;
16516;SDS011;8371;52.272;9.746;2023-04-25T13:06:07;0.70;;;0.70;;
16516;SDS011;8371;52.272;9.746;2023-04-25T13:08:52;7.63;;;0.80;;
16516;SDS011;8371;52.272;9.746;2023-04-25T13:11:12;0.87;;;0.50;;
16516;SDS011;8371;52.272;9.746;2023-04-25T13:13:53;0.40;;;0.33;;
16516;SDS011;8371;52.272;9.746;2023-04-25T13:16:09;1.00;;;0.77;;
16516;SDS011;8371;52.272;9.746;2023-04-25T13:18:40;0.50;;;0.50;;
16516;SDS011;8371;52.272;9.746;2023-04-25T13:21:05;0.80;;;0.63;;
16516;SDS011;8371;52.272;9.746;2023-04-25T13:23:40;2.13;;;0.80;;
16516;SDS011;8371;52.272;9.746;2023-04-25T13:26:19;0.77;;;0.70;;
16516;SDS011;8371;52.272;9.746;2023-04-25T13:28:59;0.80;;;0.80;;
16516;SDS011;8371;52.272;9.746;2023-04-25T13:31:25;0.67;;;0.63;;
16516;SDS011;8371;52.272;9.746;2023-04-25T13:33:56;0.60;;;0.60;;
16516;SDS011;8371;52.272;9.746;2023-04-25T13:36:22;0.60;;;0.60;;
16516;SDS011;8371;52.272;9.746;2023-04-25T13:38:48;0.40;;;0.40;;
16516;SDS011;8371;52.272;9.746;2023-04-25T13:41:14;0.60;;;0.60;;
16516;SDS011;8371;52.272;9.746;2023-04-25T13:43:42;0.40;;;0.40;;
16516;SDS011;8371;52.272;9.746;2023-04-25T13:46:08;0.50;;;0.50;;
16516;SDS011;8371;52.272;9.746;2023-04-25T13:48:38;0.50;;;0.47;;
16516;SDS011;8371;52.272;9.746;2023-04-25T13:51:08;0.80;;;0.80;;
16516;SDS011;8371;52.272;9.746;2023-04-25T13:53:37;0.80;;;0.80;;
16516;SDS011;8371;52.272;9.746;2023-04-25T13:56:09;0.87;;;0.50;;
16516;SDS011;8371;52.272;9.746;2023-04-25T13:58:37;0.67;;;0.40;;
16516;SDS011;8371;52.272;9.746;2023-04-25T14:01:06;0.70;;;0.70;;
16516;SDS011;8371;52.272;9.746;2023-04-25T14:03:36;0.77;;;0.73;;
16516;SDS011;8371;52.272;9.746;2023-04-25T14:06:11;1.70;;;0.83;;
16516;SDS011;8371;52.272;9.746;2023-04-25T14:08:39;2.40;;;0.97;;
16516;SDS011;8371;52.272;9.746;2023-04-25T14:11:07;0.70;;;0.70;;
16516;SDS011;8371;52.272;9.746;2023-04-25T14:13:33;0.87;;;0.87;;
16516;SDS011;8371;52.272;9.746;2023-04-25T14:16:03;0.87;;;0.77;;
16516;SDS011;8371;52.272;9.746;2023-04-25T14:18:36;0.73;;;0.60;;
16516;SDS011;8371;52.272;9.746;2023-04-25T14:21:07;0.70;;;0.70;;
16516;SDS011;8371;52.272;9.746;2023-04-25T14:23:35;1.00;;;0.70;;
16516;SDS011;8371;52.272;9.746;2023-04-25T14:26:03;0.67;;;0.67;;
16516;SDS011;8371;52.272;9.746;2023-04-25T14:28:29;0.50;;;0.50;;
16516;SDS011;8371;52.272;9.746;2023-04-25T14:30:57;0.40;;;0.40;;
16516;SDS011;8371;52.272;9.746;2023-04-25T14:33:25;0.30;;;0.30;;
16516;SDS011;8371;52.272;9.746;2023-04-25T14:35:51;0.60;;;0.60;;
16516;SDS011;8371;52.272;9.746;2023-04-25T14:38:22;0.50;;;0.40;;
16516;SDS011;8371;52.272;9.746;2023-04-25T14:40:50;0.40;;;0.40;;
16516;SDS011;8371;52.272;9.746;2023-04-25T14:43:30;0.93;;;0.40;;
16516;SDS011;8371;52.272;9.746;2023-04-25T14:45:45;0.50;;;0.50;;
16516;SDS011;8371;52.272;9.746;2023-04-25T14:48:10;0.73;;;0.73;;
16516;SDS011;8371;52.272;9.746;2023-04-25T14:50:37;0.57;;;0.57;;
16516;SDS011;8371;52.272;9.746;2023-04-25T14:53:03;0.77;;;0.77;;
16516;SDS011;8371;52.272;9.746;2023-04-25T14:55:31;0.93;;;0.70;;
16516;SDS011;8371;52.272;9.746;2023-04-25T14:58:01;1.23;;;0.63;;
16516;SDS011;8371;52.272;9.746;2023-04-25T15:00:31;0.90;;;0.80;;
16516;SDS011;8371;52.272;9.746;2023-04-25T15:02:57;1.00;;;1.00;;
16516;SDS011;8371;52.272;9.746;2023-04-25T15:05:24;0.80;;;0.60;;
16516;SDS011;8371;52.272;9.746;2023-04-25T15:07:50;0.97;;;0.60;;
16516;SDS011;8371;52.272;9.746;2023-04-25T15:10:16;0.50;;;0.50;;
16516;SDS011;8371;52.272;9.746;2023-04-25T15:12:43;1.20;;;0.40;;
16516;SDS011;8371;52.272;9.746;2023-04-25T15:15:09;0.70;;;0.60;;
16516;SDS011;8371;52.272;9.746;2023-04-25T15:17:43;1.27;;;1.10;;